sensor_id;sensor_type;location;lat;lon;timestamp;pressure;altitude;pressure_sealevel;temperature;humidity
57827;BME280;43656;57.746;11.780;2024-01-27T00:00:18;101502.78;;;3.89;100.00
57827;BME280;43656;57.746;11.780;2024-01-27T00:02:43;101471.38;;;3.73;100.00
57827;BME280;43656;57.746;11.780;2024-01-27T00:05:09;101490.88;;;3.93;100.00
57827;BME280;43656;57.746;11.780;2024-01-27T00:07:34;101516.66;;;3.92;100.00
57827;BME280;43656;57.746;11.780;2024-01-27T00:10:01;101484.84;;;3.91;100.00
57827;BME280;43656;57.746;11.780;2024-01-27T00:12:27;101511.59;;;3.89;100.00
57827;BME280;43656;57.746;11.780;2024-01-27T00:14:53;101518.88;;;3.97;100.00
57827;BME280;43656;57.746;11.780;2024-01-27T00:17:19;101495.50;;;3.81;100.00
57827;BME280;43656;57.746;11.780;2024-01-27T00:19:51;101533.75;;;3.99;100.00
57827;BME280;43656;57.746;11.780;2024-01-27T00:22:16;101545.53;;;3.97;100.00
57827;BME280;43656;57.746;11.780;2024-01-27T00:24:42;101525.09;;;3.97;100.00
57827;BME280;43656;57.746;11.780;2024-01-27T00:27:08;101548.91;;;3.99;100.00
57827;BME280;43656;57.746;11.780;2024-01-27T00:29:33;101548.06;;;3.98;100.00
57827;BME280;43656;57.746;11.780;2024-01-27T00:31:59;101542.44;;;3.92;100.00
57827;BME280;43656;57.746;11.780;2024-01-27T00:34:26;101550.81;;;3.87;100.00
57827;BME280;43656;57.746;11.780;2024-01-27T00:36:52;101568.09;;;3.93;100.00
57827;BME280;43656;57.746;11.780;2024-01-27T00:39:17;101510.28;;;3.55;100.00
57827;BME280;43656;57.746;11.780;2024-01-27T00:41:43;101580.56;;;3.92;100.00
57827;BME280;43656;57.746;11.780;2024-01-27T00:44:09;101585.72;;;3.94;100.00
57827;BME280;43656;57.746;11.780;2024-01-27T00:46:38;101569.88;;;3.83;100.00
57827;BME280;43656;57.746;11.780;2024-01-27T00:49:04;101590.78;;;3.97;100.00
57827;BME280;43656;57.746;11.780;2024-01-27T00:51:29;101596.69;;;3.91;100.00
57827;BME280;43656;57.746;11.780;2024-01-27T00:53:55;101598.22;;;4.03;100.00
57827;BME280;43656;57.746;11.780;2024-01-27T00:56:20;101616.88;;;4.03;100.00
57827;BME280;43656;57.746;11.780;2024-01-27T00:58:46;101622.09;;;4.05;100.00
57827;BME280;43656;57.746;11.780;2024-01-27T01:01:11;101622.09;;;4.05;100.00
57827;BME280;43656;57.746;11.780;2024-01-27T01:03:37;101628.09;;;4.07;100.00
57827;BME280;43656;57.746;11.780;2024-01-27T01:06:02;101618.66;;;3.93;100.00
57827;BME280;43656;57.746;11.780;2024-01-27T01:08:28;101650.53;;;4.04;100.00
57827;BME280;43656;57.746;11.780;2024-01-27T01:10:53;101655.00;;;4.04;100.00
57827;BME280;43656;57.746;11.780;2024-01-27T01:13:19;101666.63;;;4.03;100.00
57827;BME280;43656;57.746;11.780;2024-01-27T01:15:44;101675.88;;;3.98;100.00
57827;BME280;43656;57.746;11.780;2024-01-27T01:18:10;101684.72;;;3.99;100.00
57827;BME280;43656;57.746;11.780;2024-01-27T01:20:35;101686.25;;;4.02;100.00
57827;BME280;43656;57.746;11.780;2024-01-27T01:23:00;101684.56;;;4.00;100.00
57827;BME280;43656;57.746;11.780;2024-01-27T01:25:26;101696.66;;;4.05;100.00
57827;BME280;43656;57.746;11.780;2024-01-27T01:27:51;101703.81;;;4.04;100.00
57827;BME280;43656;57.746;11.780;2024-01-27T01:30:17;101703.34;;;3.99;100.00
57827;BME280;43656;57.746;11.780;2024-01-27T01:32:43;101715.81;;;3.98;100.00
57827;BME280;43656;57.746;11.780;2024-01-27T01:35:12;101715.69;;;4.00;100.00
57827;BME280;43656;57.746;11.780;2024-01-27T01:37:38;101717.69;;;4.08;100.00
57827;BME280;43656;57.746;11.780;2024-01-27T01:40:04;101722.28;;;4.06;100.00
57827;BME280;43656;57.746;11.780;2024-01-27T01:42:29;101721.84;;;4.00;100.00
57827;BME280;43656;57.746;11.780;2024-01-27T01:44:55;101699.09;;;3.87;100.00
57827;BME280;43656;57.746;11.780;2024-01-27T01:47:20;101717.44;;;3.90;100.00
57827;BME280;43656;57.746;11.780;2024-01-27T01:49:47;101722.50;;;3.93;100.00
57827;BME280;43656;57.746;11.780;2024-01-27T01:52:13;101723.94;;;3.97;100.00
57827;BME280;43656;57.746;11.780;2024-01-27T01:54:49;101707.91;;;3.87;100.00
57827;BME280;43656;57.746;11.780;2024-01-27T01:57:15;101730.69;;;4.01;100.00
57827;BME280;43656;57.746;11.780;2024-01-27T01:59:40;101731.66;;;4.00;100.00
57827;BME280;43656;57.746;11.780;2024-01-27T02:02:09;101747.06;;;3.96;100.00
57827;BME280;43656;57.746;11.780;2024-01-27T02:04:42;101753.38;;;3.95;100.00
57827;BME280;43656;57.746;11.780;2024-01-27T02:07:08;101742.31;;;4.00;100.00
57827;BME280;43656;57.746;11.780;2024-01-27T02:09:34;101741.94;;;4.05;100.00
57827;BME280;43656;57.746;11.780;2024-01-27T02:12:01;101745.53;;;4.04;100.00
57827;BME280;43656;57.746;11.780;2024-01-27T02:14:27;101736.59;;;4.05;100.00
57827;BME280;43656;57.746;11.780;2024-01-27T02:16:53;101750.19;;;4.02;100.00
57827;BME280;43656;57.746;11.780;2024-01-27T02:19:19;101750.56;;;3.97;100.00
57827;BME280;43656;57.746;11.780;2024-01-27T02:21:44;101750.56;;;3.97;100.00
57827;BME280;43656;57.746;11.780;2024-01-27T02:24:09;101721.19;;;3.78;100.00
57827;BME280;43656;57.746;11.780;2024-01-27T02:26:35;101761.94;;;3.99;100.00
57827;BME280;43656;57.746;11.780;2024-01-27T02:29:01;101768.81;;;4.02;100.00
57827;BME280;43656;57.746;11.780;2024-01-27T02:31:26;101771.47;;;4.02;100.00
57827;BME280;43656;57.746;11.780;2024-01-27T02:33:52;101773.41;;;3.99;100.00
57827;BME280;43656;57.746;11.780;2024-01-27T02:36:17;101775.25;;;3.99;100.00
57827;BME280;43656;57.746;11.780;2024-01-27T02:38:42;101781.28;;;4.01;100.00
57827;BME280;43656;57.746;11.780;2024-01-27T02:41:10;101781.28;;;4.01;100.00
57827;BME280;43656;57.746;11.780;2024-01-27T02:43:36;101785.91;;;3.99;100.00
57827;BME280;43656;57.746;11.780;2024-01-27T02:46:01;101792.38;;;4.06;100.00
57827;BME280;43656;57.746;11.780;2024-01-27T02:48:27;101788.31;;;4.02;100.00
57827;BME280;43656;57.746;11.780;2024-01-27T02:50:52;101800.78;;;4.02;100.00
57827;BME280;43656;57.746;11.780;2024-01-27T02:53:18;101791.81;;;4.03;100.00
57827;BME280;43656;57.746;11.780;2024-01-27T02:55:44;101780.78;;;3.86;100.00
57827;BME280;43656;57.746;11.780;2024-01-27T02:58:10;101813.25;;;4.01;100.00
57827;BME280;43656;57.746;11.780;2024-01-27T03:00:35;101791.06;;;4.00;100.00
57827;BME280;43656;57.746;11.780;2024-01-27T03:03:01;101815.78;;;4.03;100.00
57827;BME280;43656;57.746;11.780;2024-01-27T03:05:26;101810.38;;;3.93;100.00
57827;BME280;43656;57.746;11.780;2024-01-27T03:07:52;101818.13;;;3.96;100.00
57827;BME280;43656;57.746;11.780;2024-01-27T03:10:18;101819.94;;;3.95;100.00
57827;BME280;43656;57.746;11.780;2024-01-27T03:12:43;101821.63;;;3.96;100.00
57827;BME280;43656;57.746;11.780;2024-01-27T03:15:09;101821.34;;;3.99;100.00
57827;BME280;43656;57.746;11.780;2024-01-27T03:17:34;101827.66;;;3.98;100.00
57827;BME280;43656;57.746;11.780;2024-01-27T03:19:59;101827.19;;;3.93;100.00
57827;BME280;43656;57.746;11.780;2024-01-27T03:22:25;101834.94;;;3.96;100.00
57827;BME280;43656;57.746;11.780;2024-01-27T03:24:50;101835.78;;;3.97;100.00
57827;BME280;43656;57.746;11.780;2024-01-27T03:27:17;101840.00;;;3.99;100.00
57827;BME280;43656;57.746;11.780;2024-01-27T03:29:42;101850.06;;;3.96;100.00
57827;BME280;43656;57.746;11.780;2024-01-27T03:32:09;101820.66;;;3.76;100.00
57827;BME280;43656;57.746;11.780;2024-01-27T03:34:34;101850.91;;;3.96;100.00
57827;BME280;43656;57.746;11.780;2024-01-27T03:36:59;101851.06;;;3.95;100.00
57827;BME280;43656;57.746;11.780;2024-01-27T03:39:25;101853.47;;;3.98;100.00
57827;BME280;43656;57.746;11.780;2024-01-27T03:41:50;101854.97;;;3.91;100.00
57827;BME280;43656;57.746;11.780;2024-01-27T03:44:16;101858.00;;;3.86;100.00
57827;BME280;43656;57.746;11.780;2024-01-27T03:46:41;101832.06;;;3.67;100.00
57827;BME280;43656;57.746;11.780;2024-01-27T03:49:08;101863.78;;;3.91;100.00
57827;BME280;43656;57.746;11.780;2024-01-27T03:51:33;101864.75;;;3.90;100.00
57827;BME280;43656;57.746;11.780;2024-01-27T03:53:59;101887.88;;;3.90;100.00
57827;BME280;43656;57.746;11.780;2024-01-27T03:56:24;101887.41;;;3.85;100.00
57827;BME280;43656;57.746;11.780;2024-01-27T03:58:50;101895.44;;;3.73;100.00
57827;BME280;43656;57.746;11.780;2024-01-27T04:01:15;101893.56;;;3.64;100.00
57827;BME280;43656;57.746;11.780;2024-01-27T04:03:40;101903.22;;;3.65;100.00
57827;BME280;43656;57.746;11.780;2024-01-27T04:06:06;101901.56;;;3.64;100.00
57827;BME280;43656;57.746;11.780;2024-01-27T04:08:31;101899.72;;;3.65;100.00
57827;BME280;43656;57.746;11.780;2024-01-27T04:10:57;101909.97;;;3.69;100.00
57827;BME280;43656;57.746;11.780;2024-01-27T04:13:23;101911.31;;;3.64;100.00
57827;BME280;43656;57.746;11.780;2024-01-27T04:15:48;101911.72;;;3.59;100.00
57827;BME280;43656;57.746;11.780;2024-01-27T04:18:16;101923.09;;;3.61;100.00
57827;BME280;43656;57.746;11.780;2024-01-27T04:20:41;101920.78;;;3.57;100.00
57827;BME280;43656;57.746;11.780;2024-01-27T04:23:07;101919.38;;;3.52;100.00
57827;BME280;43656;57.746;11.780;2024-01-27T04:25:32;101922.63;;;3.56;100.00
57827;BME280;43656;57.746;11.780;2024-01-27T04:27:57;101890.97;;;3.42;100.00
57827;BME280;43656;57.746;11.780;2024-01-27T04:30:23;101922.13;;;3.62;100.00
57827;BME280;43656;57.746;11.780;2024-01-27T04:32:48;101924.53;;;3.65;100.00
57827;BME280;43656;57.746;11.780;2024-01-27T04:35:15;101899.50;;;3.57;100.00
57827;BME280;43656;57.746;11.780;2024-01-27T04:37:43;101932.72;;;3.73;100.00
57827;BME280;43656;57.746;11.780;2024-01-27T04:40:10;101925.44;;;3.75;100.00
57827;BME280;43656;57.746;11.780;2024-01-27T04:42:37;101935.13;;;3.76;100.00
57827;BME280;43656;57.746;11.780;2024-01-27T04:45:04;101935.84;;;3.79;100.00
57827;BME280;43656;57.746;11.780;2024-01-27T04:47:31;101942.84;;;3.80;100.00
57827;BME280;43656;57.746;11.780;2024-01-27T04:49:56;101950.97;;;3.78;100.00
57827;BME280;43656;57.746;11.780;2024-01-27T04:52:25;101946.41;;;3.69;100.00
57827;BME280;43656;57.746;11.780;2024-01-27T04:54:51;101949.19;;;3.67;100.00
57827;BME280;43656;57.746;11.780;2024-01-27T04:57:16;101961.28;;;3.71;100.00
57827;BME280;43656;57.746;11.780;2024-01-27T04:59:42;101954.50;;;3.67;100.00
57827;BME280;43656;57.746;11.780;2024-01-27T05:02:07;101961.78;;;3.65;100.00
57827;BME280;43656;57.746;11.780;2024-01-27T05:04:32;101967.94;;;3.66;100.00
57827;BME280;43656;57.746;11.780;2024-01-27T05:06:58;101955.72;;;3.63;100.00
57827;BME280;43656;57.746;11.780;2024-01-27T05:09:23;101964.94;;;3.59;100.00
57827;BME280;43656;57.746;11.780;2024-01-27T05:11:48;101959.75;;;3.58;100.00
57827;BME280;43656;57.746;11.780;2024-01-27T05:14:16;101965.34;;;3.55;100.00
57827;BME280;43656;57.746;11.780;2024-01-27T05:16:42;101953.13;;;3.52;100.00
57827;BME280;43656;57.746;11.780;2024-01-27T05:19:07;101937.69;;;3.35;100.00
57827;BME280;43656;57.746;11.780;2024-01-27T05:21:33;101977.28;;;3.60;100.00
57827;BME280;43656;57.746;11.780;2024-01-27T05:23:58;101984.66;;;3.57;100.00
57827;BME280;43656;57.746;11.780;2024-01-27T05:26:23;101974.28;;;3.53;100.00
57827;BME280;43656;57.746;11.780;2024-01-27T05:28:49;101987.22;;;3.58;100.00
57827;BME280;43656;57.746;11.780;2024-01-27T05:31:14;101950.00;;;3.36;100.00
57827;BME280;43656;57.746;11.780;2024-01-27T05:33:42;101986.38;;;3.58;100.00
57827;BME280;43656;57.746;11.780;2024-01-27T05:36:08;101993.13;;;3.62;100.00
57827;BME280;43656;57.746;11.780;2024-01-27T05:38:33;102001.47;;;3.68;100.00
57827;BME280;43656;57.746;11.780;2024-01-27T05:41:02;102005.81;;;3.69;100.00
57827;BME280;43656;57.746;11.780;2024-01-27T05:43:28;102016.34;;;3.71;100.00
57827;BME280;43656;57.746;11.780;2024-01-27T05:45:53;101986.84;;;3.63;100.00
57827;BME280;43656;57.746;11.780;2024-01-27T05:48:19;102002.06;;;3.72;100.00
57827;BME280;43656;57.746;11.780;2024-01-27T05:50:55;102019.47;;;3.76;100.00
57827;BME280;43656;57.746;11.780;2024-01-27T05:53:21;102022.97;;;3.76;100.00
57827;BME280;43656;57.746;11.780;2024-01-27T05:55:47;101992.41;;;3.60;100.00
57827;BME280;43656;57.746;11.780;2024-01-27T05:58:12;102025.63;;;3.76;100.00
57827;BME280;43656;57.746;11.780;2024-01-27T06:00:38;102024.53;;;3.79;100.00
57827;BME280;43656;57.746;11.780;2024-01-27T06:03:03;102031.44;;;3.82;100.00
57827;BME280;43656;57.746;11.780;2024-01-27T06:05:29;102023.56;;;3.80;100.00
57827;BME280;43656;57.746;11.780;2024-01-27T06:07:54;102028.03;;;3.80;100.00
57827;BME280;43656;57.746;11.780;2024-01-27T06:10:20;102002.94;;;3.61;100.00
57827;BME280;43656;57.746;11.780;2024-01-27T06:12:45;102034.22;;;3.80;100.00
57827;BME280;43656;57.746;11.780;2024-01-27T06:15:11;102034.34;;;3.79;100.00
57827;BME280;43656;57.746;11.780;2024-01-27T06:17:36;102028.66;;;3.83;100.00
57827;BME280;43656;57.746;11.780;2024-01-27T06:20:01;102036.97;;;3.90;100.00
57827;BME280;43656;57.746;11.780;2024-01-27T06:22:29;102037.97;;;3.89;100.00
57827;BME280;43656;57.746;11.780;2024-01-27T06:24:56;102029.72;;;3.81;100.00
57827;BME280;43656;57.746;11.780;2024-01-27T06:27:21;102046.06;;;3.87;100.00
57827;BME280;43656;57.746;11.780;2024-01-27T06:29:47;102044.25;;;3.88;100.00
57827;BME280;43656;57.746;11.780;2024-01-27T06:32:12;102044.00;;;3.91;100.00
57827;BME280;43656;57.746;11.780;2024-01-27T06:34:38;102042.56;;;3.87;100.00
57827;BME280;43656;57.746;11.780;2024-01-27T06:37:03;102048.00;;;3.85;100.00
57827;BME280;43656;57.746;11.780;2024-01-27T06:39:30;102056.09;;;3.84;100.00
57827;BME280;43656;57.746;11.780;2024-01-27T06:41:55;102050.53;;;3.87;100.00
57827;BME280;43656;57.746;11.780;2024-01-27T06:44:21;102060.09;;;3.89;100.00
57827;BME280;43656;57.746;11.780;2024-01-27T06:46:46;102063.75;;;3.88;100.00
57827;BME280;43656;57.746;11.780;2024-01-27T06:49:15;102068.47;;;3.85;100.00
57827;BME280;43656;57.746;11.780;2024-01-27T06:51:41;102059.50;;;3.86;100.00
57827;BME280;43656;57.746;11.780;2024-01-27T06:54:06;102062.50;;;3.92;100.00
57827;BME280;43656;57.746;11.780;2024-01-27T06:56:32;102065.19;;;3.92;100.00
57827;BME280;43656;57.746;11.780;2024-01-27T06:58:57;102054.38;;;3.94;100.00
57827;BME280;43656;57.746;11.780;2024-01-27T07:01:22;102044.03;;;3.80;100.00
57827;BME280;43656;57.746;11.780;2024-01-27T07:03:48;102067.00;;;3.92;100.00
57827;BME280;43656;57.746;11.780;2024-01-27T07:06:15;102075.19;;;4.00;100.00
57827;BME280;43656;57.746;11.780;2024-01-27T07:08:40;102067.09;;;4.02;100.00
57827;BME280;43656;57.746;11.780;2024-01-27T07:11:05;102072.28;;;4.03;100.00
57827;BME280;43656;57.746;11.780;2024-01-27T07:13:31;102079.44;;;4.03;100.00
57827;BME280;43656;57.746;11.780;2024-01-27T07:15:56;102080.88;;;4.07;100.00
57827;BME280;43656;57.746;11.780;2024-01-27T07:18:24;102092.84;;;4.12;100.00
57827;BME280;43656;57.746;11.780;2024-01-27T07:20:49;102065.53;;;3.99;100.00
57827;BME280;43656;57.746;11.780;2024-01-27T07:23:15;102095.72;;;4.20;100.00
57827;BME280;43656;57.746;11.780;2024-01-27T07:25:42;102082.16;;;4.23;100.00
57827;BME280;43656;57.746;11.780;2024-01-27T07:28:07;102093.47;;;4.37;100.00
57827;BME280;43656;57.746;11.780;2024-01-27T07:30:34;102104.03;;;4.38;100.00
57827;BME280;43656;57.746;11.780;2024-01-27T07:33:00;102111.78;;;4.41;100.00
57827;BME280;43656;57.746;11.780;2024-01-27T07:35:26;102115.03;;;4.45;100.00
57827;BME280;43656;57.746;11.780;2024-01-27T07:37:51;102107.16;;;4.43;100.00
57827;BME280;43656;57.746;11.780;2024-01-27T07:40:17;102113.22;;;4.45;100.00
57827;BME280;43656;57.746;11.780;2024-01-27T07:42:42;102116.13;;;4.42;100.00
57827;BME280;43656;57.746;11.780;2024-01-27T07:45:08;102127.63;;;4.43;100.00
57827;BME280;43656;57.746;11.780;2024-01-27T07:47:34;102129.59;;;4.41;100.00
57827;BME280;43656;57.746;11.780;2024-01-27T07:49:59;102125.81;;;4.43;100.00
57827;BME280;43656;57.746;11.780;2024-01-27T07:52:25;102140.09;;;4.42;100.00
57827;BME280;43656;57.746;11.780;2024-01-27T07:54:50;102122.78;;;4.37;100.00
57827;BME280;43656;57.746;11.780;2024-01-27T07:57:16;102140.00;;;4.44;100.00
57827;BME280;43656;57.746;11.780;2024-01-27T07:59:41;102128.84;;;4.39;100.00
57827;BME280;43656;57.746;11.780;2024-01-27T08:02:06;102150.13;;;4.50;100.00
57827;BME280;43656;57.746;11.780;2024-01-27T08:04:32;102153.78;;;4.49;100.00
57827;BME280;43656;57.746;11.780;2024-01-27T08:06:57;102153.19;;;4.45;100.00
57827;BME280;43656;57.746;11.780;2024-01-27T08:09:23;102159.94;;;4.50;100.00
57827;BME280;43656;57.746;11.780;2024-01-27T08:11:49;102164.94;;;4.54;100.00
57827;BME280;43656;57.746;11.780;2024-01-27T08:14:17;102152.19;;;4.58;100.00
57827;BME280;43656;57.746;11.780;2024-01-27T08:16:43;102162.34;;;4.64;100.00
57827;BME280;43656;57.746;11.780;2024-01-27T08:19:08;102170.19;;;4.65;100.00
57827;BME280;43656;57.746;11.780;2024-01-27T08:21:34;102176.72;;;4.72;100.00
57827;BME280;43656;57.746;11.780;2024-01-27T08:23:59;102182.53;;;4.78;100.00
57827;BME280;43656;57.746;11.780;2024-01-27T08:26:25;102181.16;;;4.83;100.00
57827;BME280;43656;57.746;11.780;2024-01-27T08:28:50;102182.03;;;4.84;100.00
57827;BME280;43656;57.746;11.780;2024-01-27T08:31:16;102191.91;;;4.93;100.00
57827;BME280;43656;57.746;11.780;2024-01-27T08:33:41;102200.22;;;5.00;100.00
57827;BME280;43656;57.746;11.780;2024-01-27T08:36:07;102202.53;;;5.04;100.00
57827;BME280;43656;57.746;11.780;2024-01-27T08:38:32;102178.44;;;4.94;100.00
57827;BME280;43656;57.746;11.780;2024-01-27T08:40:57;102207.47;;;5.09;100.00
57827;BME280;43656;57.746;11.780;2024-01-27T08:43:23;102174.88;;;5.05;100.00
57827;BME280;43656;57.746;11.780;2024-01-27T08:45:48;102191.09;;;5.13;100.00
57827;BME280;43656;57.746;11.780;2024-01-27T08:48:14;102202.22;;;5.18;100.00
57827;BME280;43656;57.746;11.780;2024-01-27T08:50:41;102202.94;;;5.21;100.00
57827;BME280;43656;57.746;11.780;2024-01-27T08:53:07;102205.47;;;5.22;100.00
57827;BME280;43656;57.746;11.780;2024-01-27T08:55:33;102189.97;;;5.16;100.00
57827;BME280;43656;57.746;11.780;2024-01-27T08:57:58;102202.28;;;5.28;100.00
57827;BME280;43656;57.746;11.780;2024-01-27T09:00:24;102203.84;;;5.31;100.00
57827;BME280;43656;57.746;11.780;2024-01-27T09:02:51;102199.09;;;5.34;100.00
57827;BME280;43656;57.746;11.780;2024-01-27T09:05:17;102202.88;;;5.32;100.00
57827;BME280;43656;57.746;11.780;2024-01-27T09:07:42;102191.34;;;5.31;100.00
57827;BME280;43656;57.746;11.780;2024-01-27T09:10:09;102206.13;;;5.35;100.00
57827;BME280;43656;57.746;11.780;2024-01-27T09:12:38;102211.19;;;5.38;100.00
57827;BME280;43656;57.746;11.780;2024-01-27T09:15:05;102217.84;;;5.44;100.00
57827;BME280;43656;57.746;11.780;2024-01-27T09:17:31;102219.53;;;5.45;100.00
57827;BME280;43656;57.746;11.780;2024-01-27T09:19:56;102217.44;;;5.49;100.00
57827;BME280;43656;57.746;11.780;2024-01-27T09:22:22;102221.94;;;5.48;100.00
57827;BME280;43656;57.746;11.780;2024-01-27T09:24:47;102216.19;;;5.53;100.00
57827;BME280;43656;57.746;11.780;2024-01-27T09:27:13;102219.84;;;5.52;100.00
57827;BME280;43656;57.746;11.780;2024-01-27T09:29:38;102228.31;;;5.57;100.00
57827;BME280;43656;57.746;11.780;2024-01-27T09:32:04;102221.16;;;5.57;100.00
57827;BME280;43656;57.746;11.780;2024-01-27T09:34:30;102192.84;;;5.45;100.00
57827;BME280;43656;57.746;11.780;2024-01-27T09:36:55;102224.00;;;5.65;100.00
57827;BME280;43656;57.746;11.780;2024-01-27T09:39:20;102228.38;;;5.67;100.00
57827;BME280;43656;57.746;11.780;2024-01-27T09:41:48;102217.75;;;5.55;100.00
57827;BME280;43656;57.746;11.780;2024-01-27T09:44:15;102232.91;;;5.76;100.00
57827;BME280;43656;57.746;11.780;2024-01-27T09:46:43;102221.47;;;5.64;100.00
57827;BME280;43656;57.746;11.780;2024-01-27T09:49:09;102251.09;;;5.82;100.00
57827;BME280;43656;57.746;11.780;2024-01-27T09:51:36;102250.13;;;5.83;100.00
57827;BME280;43656;57.746;11.780;2024-01-27T09:54:03;102244.06;;;5.81;100.00
57827;BME280;43656;57.746;11.780;2024-01-27T09:56:29;102242.81;;;5.85;100.00
57827;BME280;43656;57.746;11.780;2024-01-27T09:58:56;102253.22;;;5.88;100.00
57827;BME280;43656;57.746;11.780;2024-01-27T10:01:24;102240.66;;;5.79;100.00
57827;BME280;43656;57.746;11.780;2024-01-27T10:03:49;102260.13;;;5.91;100.00
57827;BME280;43656;57.746;11.780;2024-01-27T10:06:15;102252.22;;;5.89;100.00
57827;BME280;43656;57.746;11.780;2024-01-27T10:08:40;102259.06;;;5.93;100.00
57827;BME280;43656;57.746;11.780;2024-01-27T10:11:13;102265.09;;;5.95;100.00
57827;BME280;43656;57.746;11.780;2024-01-27T10:13:40;102261.97;;;5.90;100.00
57827;BME280;43656;57.746;11.780;2024-01-27T10:16:07;102267.06;;;5.93;100.00
57827;BME280;43656;57.746;11.780;2024-01-27T10:18:34;102264.41;;;5.93;100.00
57827;BME280;43656;57.746;11.780;2024-01-27T10:21:00;102266.94;;;5.95;100.00
57827;BME280;43656;57.746;11.780;2024-01-27T10:23:25;102263.16;;;5.97;100.00
57827;BME280;43656;57.746;11.780;2024-01-27T10:25:51;102232.97;;;5.85;100.00
57827;BME280;43656;57.746;11.780;2024-01-27T10:28:17;102252.31;;;5.99;100.00
57827;BME280;43656;57.746;11.780;2024-01-27T10:30:45;102258.50;;;5.99;100.00
57827;BME280;43656;57.746;11.780;2024-01-27T10:33:13;102248.81;;;5.98;100.00
57827;BME280;43656;57.746;11.780;2024-01-27T10:35:40;102252.06;;;6.02;100.00
57827;BME280;43656;57.746;11.780;2024-01-27T10:38:05;102265.41;;;6.02;100.00
57827;BME280;43656;57.746;11.780;2024-01-27T10:40:30;102258.81;;;6.06;100.00
57827;BME280;43656;57.746;11.780;2024-01-27T10:43:03;102272.06;;;6.07;100.00
57827;BME280;43656;57.746;11.780;2024-01-27T10:45:47;102240.59;;;5.90;100.00
57827;BME280;43656;57.746;11.780;2024-01-27T10:48:12;102253.63;;;6.04;100.00
57827;BME280;43656;57.746;11.780;2024-01-27T10:50:39;102252.72;;;5.94;100.00
57827;BME280;43656;57.746;11.780;2024-01-27T10:53:29;102258.50;;;5.99;100.00
57827;BME280;43656;57.746;11.780;2024-01-27T10:55:58;102279.03;;;5.99;100.00
57827;BME280;43656;57.746;11.780;2024-01-27T10:58:24;102290.84;;;5.96;100.00
57827;BME280;43656;57.746;11.780;2024-01-27T11:00:53;102263.75;;;5.80;100.00
57827;BME280;43656;57.746;11.780;2024-01-27T11:03:18;102290.00;;;5.96;100.00
57827;BME280;43656;57.746;11.780;2024-01-27T11:05:46;102303.34;;;5.96;100.00
57827;BME280;43656;57.746;11.780;2024-01-27T11:08:12;102299.84;;;5.95;100.00
57827;BME280;43656;57.746;11.780;2024-01-27T11:10:39;102301.53;;;5.96;100.00
57827;BME280;43656;57.746;11.780;2024-01-27T11:13:05;102304.91;;;5.98;100.00
57827;BME280;43656;57.746;11.780;2024-01-27T11:15:32;102315.34;;;6.01;100.00
57827;BME280;43656;57.746;11.780;2024-01-27T11:17:59;102303.22;;;5.97;100.00
57827;BME280;43656;57.746;11.780;2024-01-27T11:20:32;102283.88;;;5.84;100.00
57827;BME280;43656;57.746;11.780;2024-01-27T11:23:12;102307.59;;;5.98;100.00
57827;BME280;43656;57.746;11.780;2024-01-27T11:25:41;102285.53;;;5.85;100.00
57827;BME280;43656;57.746;11.780;2024-01-27T11:28:16;102295.91;;;5.99;100.00
57827;BME280;43656;57.746;11.780;2024-01-27T11:30:46;102298.22;;;6.04;100.00
57827;BME280;43656;57.746;11.780;2024-01-27T11:33:12;102252.66;;;5.84;100.00
57827;BME280;43656;57.746;11.780;2024-01-27T11:35:37;102275.97;;;6.03;100.00
57827;BME280;43656;57.746;11.780;2024-01-27T11:38:03;102261.47;;;5.96;100.00
57827;BME280;43656;57.746;11.780;2024-01-27T11:40:29;102277.88;;;6.13;100.00
57827;BME280;43656;57.746;11.780;2024-01-27T11:43:00;102280.66;;;6.11;100.00
57827;BME280;43656;57.746;11.780;2024-01-27T11:45:26;102280.38;;;6.14;100.00
57827;BME280;43656;57.746;11.780;2024-01-27T11:47:53;102258.13;;;6.04;100.00
57827;BME280;43656;57.746;11.780;2024-01-27T11:50:20;102282.53;;;6.20;100.00
57827;BME280;43656;57.746;11.780;2024-01-27T11:52:46;102287.47;;;6.25;100.00
57827;BME280;43656;57.746;11.780;2024-01-27T11:55:12;102303.38;;;6.26;100.00
57827;BME280;43656;57.746;11.780;2024-01-27T11:57:37;102310.25;;;6.29;100.00
57827;BME280;43656;57.746;11.780;2024-01-27T12:00:03;102305.63;;;6.31;100.00
57827;BME280;43656;57.746;11.780;2024-01-27T12:02:29;102283.38;;;6.21;100.00
57827;BME280;43656;57.746;11.780;2024-01-27T12:04:54;102310.56;;;6.35;100.00
57827;BME280;43656;57.746;11.780;2024-01-27T12:07:20;102315.91;;;6.35;100.00
57827;BME280;43656;57.746;11.780;2024-01-27T12:09:46;102307.91;;;6.35;100.00
57827;BME280;43656;57.746;11.780;2024-01-27T12:12:13;102307.22;;;6.33;100.00
57827;BME280;43656;57.746;11.780;2024-01-27T12:14:48;102286.31;;;6.18;100.00
57827;BME280;43656;57.746;11.780;2024-01-27T12:17:15;102325.06;;;6.33;100.00
57827;BME280;43656;57.746;11.780;2024-01-27T12:22:39;102323.19;;;6.24;100.00
57827;BME280;43656;57.746;11.780;2024-01-27T12:25:09;102340.66;;;6.28;100.00
57827;BME280;43656;57.746;11.780;2024-01-27T12:27:35;102336.31;;;6.27;100.00
57827;BME280;43656;57.746;11.780;2024-01-27T12:30:01;102338.97;;;6.27;100.00
57827;BME280;43656;57.746;11.780;2024-01-27T12:32:27;102323.88;;;6.16;100.00
57827;BME280;43656;57.746;11.780;2024-01-27T12:34:53;102331.94;;;6.26;100.00
57827;BME280;43656;57.746;11.780;2024-01-27T12:37:21;102345.88;;;6.29;100.00